Terminal Aerodrome Forecast
Issued by NWS Atlanta, GA

Home | Current Version | Previous Version | Text Only | Print | Product List | Glossary On
Versions: 1 2 3 4 5 6 7 8 9 10 11 12 13 14 15 16 17 18 19 20
585
FTUS42 KFFC 231913 AAA
TAFCSG
TAF AMD
KCSG 231913Z 2319/2418 21007KT P6SM SCT050
     FM232100 22007KT P6SM VCSH SCT060
     FM240100 22003KT P6SM FEW080 SCT150
     FM241500 25005KT P6SM SCT035
     FM241700 22006KT P6SM VCSH SCT045=

USA.gov is the U.S. government's official web portal to all federal, state and local government web resources and services.